Wetterdaten: Woche 05.06.17 - 11.06.17 (KW23)
Datum Zeit Temp. A. Pool Temp. Feuchte A. Luftdruck Regen Wind Richtung Sonnenschein ET UV Solar Taupunkt Windchill Windben Empfang
05.06.2017 00:00 13,4 C 23,9 C 94 % 1015,0 hPa 0,0 l/m 2,2 km/h (1 Bft) S 0,00 h 0,000 mm 0,0 UV-I 0 W/m 12,4 C 13,4 C 4,2 km/h (1 Bft) 96,36 %
05.06.2017 01:00 14,0 C 23,9 C 93 % 1015,1 hPa 0,0 l/m 2,9 km/h (1 Bft) S 0,00 h 0,000 mm 0,0 UV-I 0 W/m 12,9 C 14,0 C 4,7 km/h (1 Bft) 96,20 %
05.06.2017 02:00 14,1 C 23,9 C 93 % 1015,1 hPa 0,0 l/m 1,1 km/h (1 Bft) S 0,00 h 0,000 mm 0,0 UV-I 0 W/m 13,0 C 14,1 C 2,2 km/h (1 Bft) 97,01 %
05.06.2017 03:00 13,9 C 23,9 C 94 % 1015,2 hPa 0,0 l/m 0,8 km/h (0 Bft) S 0,00 h 0,000 mm 0,0 UV-I 0 W/m 13,0 C 13,9 C 1,9 km/h (1 Bft) 98,50 %
05.06.2017 04:00 13,1 C 23,5 C 95 % 1014,8 hPa 0,0 l/m 1,5 km/h (1 Bft) O 0,00 h 0,000 mm 0,0 UV-I 6 W/m 12,2 C 13,1 C 2,9 km/h (1 Bft) 94,85 %
05.06.2017 05:00 12,3 C 23,3 C 96 % 1014,3 hPa 0,0 l/m 2,5 km/h (1 Bft) O-SO 0,53 h 0,000 mm 0,0 UV-I 31 W/m 11,6 C 12,3 C 4,8 km/h (1 Bft) 98,09 %
05.06.2017 06:00 13,2 C 23,3 C 96 % 1014,0 hPa 0,0 l/m 4,4 km/h (1 Bft) O-NO 0,83 h 0,025 mm 0,0 UV-I 138 W/m 12,6 C 13,1 C 6,6 km/h (2 Bft) 96,29 %
05.06.2017 07:00 14,6 C 23,3 C 94 % 1013,8 hPa 0,0 l/m 6,7 km/h (2 Bft) NO 0,63 h 0,077 mm 0,6 UV-I 225 W/m 13,6 C 13,9 C 11,5 km/h (2 Bft) 95,18 %
05.06.2017 08:00 15,1 C 23,3 C 92 % 1014,0 hPa 0,0 l/m 8,1 km/h (2 Bft) N-NO 0,77 h 0,127 mm 1,2 UV-I 335 W/m 13,9 C 14,1 C 14,9 km/h (3 Bft) 95,60 %
05.06.2017 09:00 17,5 C 23,3 C 84 % 1013,8 hPa 0,0 l/m 12,4 km/h (3 Bft) NO 1,00 h 0,177 mm 2,4 UV-I 544 W/m 14,7 C 15,0 C 19,8 km/h (3 Bft) 96,33 %
05.06.2017 10:00 19,1 C 23,0 C 74 % 1013,5 hPa 0,0 l/m 18,5 km/h (3 Bft) NO 0,87 h 0,331 mm 3,6 UV-I 687 W/m 14,4 C 15,4 C 26,7 km/h (4 Bft) 95,21 %
05.06.2017 11:00 20,2 C 23,1 C 65 % 1013,0 hPa 0,0 l/m 18,9 km/h (3 Bft) NO 1,00 h 0,431 mm 5,2 UV-I 835 W/m 13,4 C 16,7 C 28,4 km/h (4 Bft) 95,21 %
05.06.2017 12:00 21,4 C 23,3 C 60 % 1012,3 hPa 0,0 l/m 15,9 km/h (3 Bft) O-NO 1,00 h 0,559 mm 6,1 UV-I 906 W/m 13,4 C 18,8 C 23,7 km/h (4 Bft) 95,66 %
05.06.2017 13:00 22,4 C 23,6 C 58 % 1011,4 hPa 0,0 l/m 14,8 km/h (3 Bft) O-NO 1,00 h 0,610 mm 6,2 UV-I 899 W/m 13,6 C 20,3 C 22,4 km/h (4 Bft) 98,50 %
05.06.2017 14:00 23,3 C 24,1 C 55 % 1010,6 hPa 0,0 l/m 14,9 km/h (3 Bft) NO 1,00 h 0,635 mm 5,5 UV-I 861 W/m 13,8 C 21,3 C 23,5 km/h (4 Bft) 96,97 %
05.06.2017 15:00 23,7 C 24,2 C 55 % 1009,9 hPa 0,0 l/m 14,9 km/h (3 Bft) O-NO 0,97 h 0,609 mm 3,6 UV-I 614 W/m 14,0 C 21,8 C 22,0 km/h (4 Bft) 94,75 %
05.06.2017 16:00 23,6 C 24,3 C 55 % 1009,1 hPa 0,0 l/m 17,2 km/h (3 Bft) O-NO 0,80 h 0,458 mm 2,3 UV-I 478 W/m 14,0 C 21,3 C 24,9 km/h (4 Bft) 95,66 %
05.06.2017 17:00 23,6 C 24,4 C 55 % 1008,4 hPa 0,0 l/m 16,5 km/h (3 Bft) O-NO 0,87 h 0,406 mm 1,4 UV-I 402 W/m 14,1 C 21,4 C 24,8 km/h (4 Bft) 96,83 %
05.06.2017 18:00 23,1 C 24,3 C 57 % 1007,9 hPa 0,0 l/m 15,3 km/h (3 Bft) O-NO 0,37 h 0,356 mm 0,8 UV-I 166 W/m 14,0 C 21,1 C 22,0 km/h (4 Bft) 95,54 %
05.06.2017 19:00 21,1 C 24,3 C 64 % 1007,6 hPa 0,0 l/m 8,0 km/h (2 Bft) O-NO 0,00 h 0,203 mm 0,0 UV-I 35 W/m 14,0 C 20,5 C 12,7 km/h (3 Bft) 96,12 %
05.06.2017 20:00 20,0 C 24,4 C 68 % 1007,2 hPa 0,0 l/m 8,0 km/h (2 Bft) O-NO 0,03 h 0,076 mm 0,0 UV-I 13 W/m 13,8 C 19,3 C 13,5 km/h (3 Bft) 96,50 %
05.06.2017 21:00 19,5 C 24,2 C 69 % 1007,7 hPa 0,0 l/m 9,6 km/h (2 Bft) O-NO 0,00 h 0,051 mm 0,0 UV-I 4 W/m 13,7 C 18,3 C 15,7 km/h (3 Bft) 98,47 %
05.06.2017 22:00 19,1 C 23,9 C 73 % 1008,5 hPa 0,0 l/m 10,9 km/h (2 Bft) W 0,00 h 0,051 mm 0,0 UV-I 0 W/m 14,1 C 17,4 C 17,4 km/h (3 Bft) 96,89 %
05.06.2017 23:00 16,2 C 23,9 C 91 % 1009,7 hPa 4,8 l/m 7,8 km/h (2 Bft) W-SW 0,00 h 0,050 mm 0,0 UV-I 0 W/m 14,7 C 15,2 C 14,0 km/h (3 Bft) 96,06 %
06.06.2017 00:00 15,5 C 23,9 C 95 % 1009,2 hPa 0,0 l/m 7,6 km/h (2 Bft) W-SW 0,00 h 0,000 mm 0,0 UV-I 0 W/m 14,7 C 14,8 C 12,7 km/h (3 Bft) 96,89 %
06.06.2017 01:00 15,5 C 23,9 C 95 % 1008,4 hPa 0,0 l/m 2,1 km/h (1 Bft) S 0,00 h 0,000 mm 0,0 UV-I 0 W/m 14,7 C 15,5 C 4,5 km/h (1 Bft) 97,91 %
06.06.2017 02:00 15,0 C 23,9 C 96 % 1007,7 hPa 0,0 l/m 0,7 km/h (0 Bft) SO 0,00 h 0,000 mm 0,0 UV-I 0 W/m 14,3 C 15,0 C 1,5 km/h (1 Bft) 95,83 %
06.06.2017 03:00 14,2 C 23,9 C 96 % 1006,9 hPa 0,0 l/m 0,0 km/h (0 Bft) N 0,00 h 0,000 mm 0,0 UV-I 0 W/m 13,5 C 14,2 C 0,2 km/h (0 Bft) 95,80 %
06.06.2017 04:00 13,6 C 23,3 C 97 % 1006,3 hPa 0,0 l/m 0,1 km/h (0 Bft) SO 0,00 h 0,000 mm 0,0 UV-I 0 W/m 13,1 C 13,6 C 0,4 km/h (0 Bft) 96,76 %
06.06.2017 05:00 14,3 C 23,3 C 97 % 1005,9 hPa 0,0 l/m 1,4 km/h (1 Bft) O 0,03 h 0,000 mm 0,0 UV-I 12 W/m 13,9 C 14,3 C 3,3 km/h (1 Bft) 98,12 %
06.06.2017 06:00 14,4 C 23,3 C 98 % 1005,5 hPa 0,0 l/m 3,1 km/h (1 Bft) NO 0,00 h 0,000 mm 0,0 UV-I 49 W/m 14,0 C 14,4 C 5,4 km/h (1 Bft) 94,73 %
06.06.2017 07:00 14,8 C 23,3 C 98 % 1005,2 hPa 0,0 l/m 3,1 km/h (1 Bft) NO 0,00 h 0,025 mm 0,0 UV-I 100 W/m 14,4 C 14,8 C 5,9 km/h (2 Bft) 96,38 %
06.06.2017 08:00 15,6 C 23,3 C 96 % 1004,9 hPa 0,0 l/m 3,3 km/h (1 Bft) NO 0,00 h 0,051 mm 0,6 UV-I 160 W/m 15,0 C 15,6 C 6,7 km/h (2 Bft) 96,11 %
06.06.2017 09:00 16,4 C 23,3 C 93 % 1004,7 hPa 0,0 l/m 2,2 km/h (1 Bft) NO 0,00 h 0,076 mm 1,0 UV-I 220 W/m 15,2 C 16,4 C 4,6 km/h (1 Bft) 96,70 %
06.06.2017 10:00 17,1 C 23,3 C 90 % 1004,4 hPa 0,0 l/m 0,4 km/h (0 Bft) NO 0,00 h 0,127 mm 1,5 UV-I 262 W/m 15,4 C 17,1 C 2,0 km/h (1 Bft) 95,62 %
06.06.2017 11:00 18,4 C 23,0 C 87 % 1004,1 hPa 0,0 l/m 2,3 km/h (1 Bft) O-NO 0,33 h 0,153 mm 2,4 UV-I 437 W/m 16,2 C 18,4 C 5,0 km/h (1 Bft) 95,42 %
06.06.2017 12:00 19,6 C 23,1 C 85 % 1003,4 hPa 0,0 l/m 2,4 km/h (1 Bft) O-NO 0,27 h 0,254 mm 3,7 UV-I 505 W/m 17,0 C 19,6 C 5,1 km/h (1 Bft) 95,74 %
06.06.2017 13:00 20,8 C 23,3 C 83 % 1003,0 hPa 0,0 l/m 4,5 km/h (1 Bft) W 0,43 h 0,330 mm 3,2 UV-I 499 W/m 17,8 C 20,4 C 9,3 km/h (2 Bft) 97,94 %
06.06.2017 14:00 19,7 C 23,3 C 83 % 1003,4 hPa 0,0 l/m 10,3 km/h (2 Bft) W-SW 0,00 h 0,305 mm 1,4 UV-I 222 W/m 16,8 C 18,3 C 17,8 km/h (3 Bft) 97,23 %
06.06.2017 15:00 19,4 C 23,3 C 82 % 1003,2 hPa 1,6 l/m 12,1 km/h (2 Bft) W-SW 0,00 h 0,152 mm 1,4 UV-I 193 W/m 16,2 C 17,4 C 20,1 km/h (4 Bft) 96,78 %
06.06.2017 16:00 16,8 C 23,6 C 92 % 1003,8 hPa 0,0 l/m 15,2 km/h (3 Bft) W-SW 0,00 h 0,153 mm 0,6 UV-I 127 W/m 15,5 C 13,4 C 22,8 km/h (4 Bft) 98,28 %
06.06.2017 17:00 15,9 C 23,3 C 86 % 1005,0 hPa 2,4 l/m 20,2 km/h (4 Bft) W-SW 0,00 h 0,076 mm 0,5 UV-I 43 W/m 13,5 C 10,9 C 31,2 km/h (5 Bft) 98,81 %
06.06.2017 18:00 14,1 C 23,3 C 93 % 1006,8 hPa 2,8 l/m 12,7 km/h (3 Bft) W-SW 0,00 h 0,051 mm 0,0 UV-I 16 W/m 13,0 C 11,0 C 19,7 km/h (3 Bft) 96,71 %
06.06.2017 19:00 14,0 C 23,3 C 94 % 1007,7 hPa 0,4 l/m 13,5 km/h (3 Bft) SW 0,00 h 0,025 mm 0,0 UV-I 31 W/m 13,0 C 10,6 C 20,7 km/h (4 Bft) 95,82 %
06.06.2017 20:00 12,8 C 22,8 C 90 % 1008,9 hPa 0,6 l/m 24,5 km/h (4 Bft) SW 0,00 h 0,025 mm 0,0 UV-I 17 W/m 11,1 C 5,8 C 37,8 km/h (5 Bft) 96,30 %
06.06.2017 21:00 11,3 C 22,8 C 88 % 1010,6 hPa 0,6 l/m 19,6 km/h (3 Bft) SW 0,00 h 0,026 mm 0,0 UV-I 3 W/m 9,4 C 5,1 C 30,4 km/h (5 Bft) 97,94 %
06.06.2017 22:00 11,0 C 22,8 C 89 % 1011,5 hPa 0,2 l/m 14,0 km/h (3 Bft) SW 0,00 h 0,025 mm 0,0 UV-I 0 W/m 9,2 C 7,0 C 21,4 km/h (4 Bft) 95,16 %
06.06.2017 23:00 10,9 C 22,5 C 92 % 1011,7 hPa 0,2 l/m 5,7 km/h (1 Bft) SW 0,00 h 0,026 mm 0,0 UV-I 0 W/m 9,6 C 10,7 C 9,2 km/h (2 Bft) 97,66 %
07.06.2017 00:00 10,9 C 22,2 C 92 % 1011,9 hPa 0,0 l/m 3,8 km/h (1 Bft) S 0,00 h 0,000 mm 0,0 UV-I 0 W/m 9,7 C 10,9 C 6,7 km/h (2 Bft) 93,67 %
07.06.2017 01:00 10,9 C 22,2 C 92 % 1012,3 hPa 0,0 l/m 8,3 km/h (2 Bft) S-SW 0,00 h 0,000 mm 0,0 UV-I 0 W/m 9,6 C 9,5 C 13,4 km/h (3 Bft) 98,15 %
07.06.2017 02:00 11,6 C 22,2 C 85 % 1012,5 hPa 0,0 l/m 12,4 km/h (3 Bft) SW 0,00 h 0,000 mm 0,0 UV-I 0 W/m 9,2 C 8,3 C 18,9 km/h (3 Bft) 95,27 %
07.06.2017 03:00 11,3 C 21,7 C 86 % 1013,1 hPa 0,0 l/m 8,4 km/h (2 Bft) SW 0,00 h 0,025 mm 0,0 UV-I 0 W/m 9,1 C 10,0 C 13,6 km/h (3 Bft) 98,50 %
07.06.2017 04:00 11,0 C 21,7 C 87 % 1013,5 hPa 0,0 l/m 6,9 km/h (2 Bft) SW 0,00 h 0,026 mm 0,0 UV-I 5 W/m 8,9 C 10,5 C 10,6 km/h (2 Bft) 97,27 %
07.06.2017 05:00 11,0 C 21,7 C 86 % 1014,4 hPa 0,0 l/m 7,4 km/h (2 Bft) SW 0,07 h 0,025 mm 0,0 UV-I 20 W/m 8,8 C 10,3 C 11,7 km/h (2 Bft) 95,98 %
07.06.2017 06:00 11,3 C 21,4 C 83 % 1015,1 hPa 0,0 l/m 7,5 km/h (2 Bft) W-SW 0,33 h 0,026 mm 0,0 UV-I 100 W/m 8,5 C 10,5 C 12,2 km/h (2 Bft) 95,96 %
07.06.2017 07:00 12,5 C 21,2 C 78 % 1015,6 hPa 0,0 l/m 10,9 km/h (2 Bft) SW 0,70 h 0,050 mm 0,6 UV-I 237 W/m 8,7 C 9,9 C 17,1 km/h (3 Bft) 98,26 %
07.06.2017 08:00 13,5 C 21,0 C 72 % 1016,1 hPa 0,0 l/m 9,8 km/h (2 Bft) W-SW 0,63 h 0,153 mm 1,0 UV-I 322 W/m 8,6 C 11,6 C 15,9 km/h (3 Bft) 94,67 %
07.06.2017 09:00 15,0 C 21,0 C 64 % 1016,1 hPa 0,0 l/m 10,0 km/h (2 Bft) W-SW 0,87 h 0,203 mm 2,2 UV-I 625 W/m 8,1 C 13,0 C 16,8 km/h (3 Bft) 98,31 %
07.06.2017 10:00 15,0 C 21,5 C 63 % 1016,2 hPa 0,0 l/m 10,0 km/h (2 Bft) SW 0,03 h 0,356 mm 1,9 UV-I 287 W/m 8,0 C 13,1 C 16,6 km/h (3 Bft) 97,10 %
07.06.2017 11:00 15,9 C 21,7 C 61 % 1016,3 hPa 0,0 l/m 6,4 km/h (2 Bft) W-SW 0,13 h 0,228 mm 2,3 UV-I 405 W/m 8,2 C 15,2 C 12,0 km/h (2 Bft) 95,80 %
07.06.2017 12:00 16,3 C 21,1 C 57 % 1016,5 hPa 0,0 l/m 10,4 km/h (2 Bft) W-SW 0,30 h 0,254 mm 2,7 UV-I 450 W/m 7,8 C 14,3 C 17,9 km/h (3 Bft) 95,44 %
07.06.2017 13:00 16,9 C 21,1 C 52 % 1016,5 hPa 0,0 l/m 16,3 km/h (3 Bft) W-SW 0,30 h 0,305 mm 2,4 UV-I 345 W/m 6,9 C 13,2 C 25,1 km/h (4 Bft) 97,24 %
07.06.2017 14:00 15,4 C 21,5 C 59 % 1017,0 hPa 0,0 l/m 10,2 km/h (2 Bft) W-SW 0,00 h 0,305 mm 1,2 UV-I 198 W/m 7,3 C 13,6 C 19,0 km/h (3 Bft) 96,43 %
07.06.2017 15:00 14,9 C 21,1 C 64 % 1017,5 hPa 0,0 l/m 6,3 km/h (2 Bft) W-SW 0,00 h 0,152 mm 1,5 UV-I 276 W/m 8,1 C 14,5 C 13,2 km/h (3 Bft) 96,55 %
07.06.2017 16:00 14,5 C 21,1 C 70 % 1017,8 hPa 0,0 l/m 7,1 km/h (2 Bft) S-SO 0,03 h 0,178 mm 0,9 UV-I 201 W/m 9,0 C 13,7 C 12,1 km/h (2 Bft) 94,43 %
07.06.2017 17:00 14,1 C 21,1 C 71 % 1018,1 hPa 0,0 l/m 9,3 km/h (2 Bft) S-SW 0,07 h 0,127 mm 0,9 UV-I 189 W/m 9,0 C 12,5 C 16,4 km/h (3 Bft) 95,59 %
07.06.2017 18:00 14,3 C 21,1 C 71 % 1018,6 hPa 0,0 l/m 9,6 km/h (2 Bft) S-SW 0,27 h 0,127 mm 0,5 UV-I 180 W/m 9,1 C 12,6 C 16,2 km/h (3 Bft) 96,46 %
07.06.2017 19:00 13,8 C 21,1 C 73 % 1019,0 hPa 0,0 l/m 7,2 km/h (2 Bft) SW 0,43 h 0,127 mm 0,0 UV-I 80 W/m 9,1 C 13,0 C 12,2 km/h (2 Bft) 96,44 %
07.06.2017 20:00 13,3 C 21,0 C 75 % 1019,7 hPa 0,0 l/m 4,7 km/h (1 Bft) SW 0,67 h 0,076 mm 0,0 UV-I 38 W/m 9,0 C 13,1 C 8,4 km/h (2 Bft) 95,12 %
07.06.2017 21:00 11,9 C 20,6 C 81 % 1020,6 hPa 0,0 l/m 2,3 km/h (1 Bft) SW 0,00 h 0,026 mm 0,0 UV-I 6 W/m 8,9 C 11,9 C 4,1 km/h (1 Bft) 97,64 %
07.06.2017 22:00 11,0 C 20,8 C 84 % 1021,2 hPa 0,0 l/m 4,2 km/h (1 Bft) SW 0,00 h 0,000 mm 0,0 UV-I 0 W/m 8,5 C 11,0 C 6,7 km/h (2 Bft) 97,98 %
07.06.2017 23:00 10,3 C 20,9 C 86 % 1021,8 hPa 0,0 l/m 5,3 km/h (1 Bft) SW 0,00 h 0,000 mm 0,0 UV-I 0 W/m 8,1 C 10,3 C 8,1 km/h (2 Bft) 96,23 %
08.06.2017 00:00 9,7 C 20,6 C 87 % 1022,0 hPa 0,0 l/m 5,0 km/h (1 Bft) S-SW 0,00 h 0,000 mm 0,0 UV-I 0 W/m 7,7 C 9,6 C 8,4 km/h (2 Bft) 97,17 %
08.06.2017 01:00 8,9 C 20,6 C 89 % 1021,9 hPa 0,0 l/m 4,6 km/h (1 Bft) S-SW 0,00 h 0,000 mm 0,0 UV-I 0 W/m 7,3 C 8,9 C 7,5 km/h (2 Bft) 97,56 %
08.06.2017 02:00 8,5 C 20,6 C 91 % 1022,0 hPa 0,0 l/m 4,8 km/h (1 Bft) S-SW 0,00 h 0,000 mm 0,0 UV-I 0 W/m 7,1 C 8,5 C 7,6 km/h (2 Bft) 95,69 %
08.06.2017 03:00 7,9 C 20,1 C 92 % 1022,2 hPa 0,0 l/m 5,2 km/h (1 Bft) S-SW 0,00 h 0,000 mm 0,0 UV-I 0 W/m 6,6 C 7,8 C 8,2 km/h (2 Bft) 97,04 %
08.06.2017 04:00 7,6 C 20,0 C 92 % 1022,3 hPa 0,0 l/m 4,2 km/h (1 Bft) S 0,00 h 0,000 mm 0,0 UV-I 5 W/m 6,4 C 7,6 C 6,5 km/h (2 Bft) 97,11 %
08.06.2017 05:00 7,4 C 20,0 C 92 % 1022,4 hPa 0,0 l/m 2,2 km/h (1 Bft) SW 0,13 h 0,000 mm 0,0 UV-I 17 W/m 6,3 C 7,4 C 3,8 km/h (1 Bft) 97,06 %
08.06.2017 06:00 8,2 C 19,9 C 91 % 1022,5 hPa 0,0 l/m 4,6 km/h (1 Bft) SW 0,73 h 0,000 mm 0,0 UV-I 140 W/m 6,9 C 8,2 C 7,4 km/h (2 Bft) 96,03 %
08.06.2017 07:00 11,0 C 19,2 C 85 % 1022,4 hPa 0,0 l/m 4,8 km/h (1 Bft) S-SW 1,00 h 0,076 mm 0,7 UV-I 317 W/m 8,6 C 11,0 C 8,0 km/h (2 Bft) 96,80 %
08.06.2017 08:00 12,9 C 19,3 C 79 % 1022,2 hPa 0,0 l/m 1,9 km/h (1 Bft) W 1,00 h 0,153 mm 1,5 UV-I 487 W/m 9,3 C 12,9 C 4,2 km/h (1 Bft) 96,67 %
08.06.2017 09:00 14,8 C 19,4 C 71 % 1022,1 hPa 0,0 l/m 2,3 km/h (1 Bft) NO 1,00 h 0,254 mm 2,7 UV-I 633 W/m 9,7 C 14,8 C 5,1 km/h (1 Bft) 98,68 %
08.06.2017 10:00 16,6 C 19,8 C 64 % 1021,6 hPa 0,0 l/m 2,7 km/h (1 Bft) NO 0,93 h 0,330 mm 4,0 UV-I 742 W/m 9,6 C 16,6 C 5,5 km/h (1 Bft) 97,17 %
08.06.2017 11:00 18,1 C 19,9 C 49 % 1021,2 hPa 0,0 l/m 3,7 km/h (1 Bft) S-SO 1,00 h 0,406 mm 5,2 UV-I 874 W/m 7,1 C 18,0 C 8,1 km/h (2 Bft) 96,78 %
08.06.2017 12:00 18,7 C 20,5 C 47 % 1020,7 hPa 0,0 l/m 4,2 km/h (1 Bft) W-SW 1,00 h 0,508 mm 5,4 UV-I 837 W/m 7,0 C 18,6 C 8,5 km/h (2 Bft) 96,33 %
08.06.2017 13:00 19,3 C 20,6 C 45 % 1020,1 hPa 0,0 l/m 3,8 km/h (1 Bft) S-SO 1,00 h 0,508 mm 5,0 UV-I 780 W/m 7,0 C 19,2 C 7,5 km/h (2 Bft) 97,55 %
08.06.2017 14:00 20,0 C 21,0 C 49 % 1019,6 hPa 0,0 l/m 3,5 km/h (1 Bft) NO 1,00 h 0,483 mm 5,0 UV-I 804 W/m 8,8 C 20,0 C 7,2 km/h (2 Bft) 97,30 %
08.06.2017 15:00 20,6 C 21,4 C 45 % 1019,2 hPa 0,0 l/m 3,4 km/h (1 Bft) NO 1,00 h 0,482 mm 4,1 UV-I 733 W/m 8,4 C 20,6 C 7,0 km/h (2 Bft) 95,45 %
08.06.2017 16:00 21,3 C 21,5 C 45 % 1018,6 hPa 0,0 l/m 4,7 km/h (1 Bft) NO 1,00 h 0,458 mm 2,9 UV-I 642 W/m 9,0 C 21,2 C 8,8 km/h (2 Bft) 95,36 %
08.06.2017 17:00 21,2 C 22,0 C 44 % 1018,0 hPa 0,0 l/m 2,2 km/h (1 Bft) NO 1,00 h 0,406 mm 1,6 UV-I 432 W/m 8,3 C 21,2 C 5,0 km/h (1 Bft) 96,80 %
08.06.2017 18:00 20,8 C 21,7 C 46 % 1017,5 hPa 0,0 l/m 1,2 km/h (1 Bft) N-NO 1,00 h 0,279 mm 0,7 UV-I 288 W/m 8,7 C 20,8 C 3,0 km/h (1 Bft) 96,84 %
08.06.2017 19:00 19,4 C 21,8 C 54 % 1017,3 hPa 0,0 l/m 3,1 km/h (1 Bft) N-NO 0,97 h 0,178 mm 0,0 UV-I 141 W/m 9,8 C 19,4 C 6,8 km/h (2 Bft) 97,55 %
08.06.2017 20:00 17,8 C 22,3 C 60 % 1017,1 hPa 0,0 l/m 0,9 km/h (0 Bft) N-NO 0,73 h 0,102 mm 0,0 UV-I 43 W/m 9,9 C 17,8 C 1,8 km/h (1 Bft) 96,66 %
08.06.2017 21:00 15,5 C 22,2 C 71 % 1017,3 hPa 0,0 l/m 0,3 km/h (0 Bft) N-NO 0,00 h 0,025 mm 0,0 UV-I 7 W/m 10,1 C 15,5 C 0,5 km/h (0 Bft) 96,26 %
08.06.2017 22:00 13,5 C 22,2 C 77 % 1017,5 hPa 0,0 l/m 0,1 km/h (0 Bft) N-NO 0,00 h 0,000 mm 0,0 UV-I 0 W/m 9,5 C 13,5 C 0,3 km/h (0 Bft) 97,62 %
08.06.2017 23:00 12,4 C 22,2 C 77 % 1017,4 hPa 0,0 l/m 1,2 km/h (1 Bft) N-NO 0,00 h 0,000 mm 0,0 UV-I 0 W/m 8,5 C 12,4 C 2,2 km/h (1 Bft) 98,24 %
09.06.2017 00:00 11,6 C 22,2 C 81 % 1017,1 hPa 0,0 l/m 1,1 km/h (1 Bft) N-NO 0,00 h 0,000 mm 0,0 UV-I 0 W/m 8,4 C 11,6 C 2,4 km/h (1 Bft) 95,23 %
09.06.2017 01:00 11,2 C 21,8 C 86 % 1016,9 hPa 0,0 l/m 0,6 km/h (0 Bft) NO 0,00 h 0,000 mm 0,0 UV-I 0 W/m 8,9 C 11,2 C 1,6 km/h (1 Bft) 98,22 %
09.06.2017 02:00 10,3 C 21,7 C 89 % 1016,5 hPa 0,0 l/m 0,3 km/h (0 Bft) NO 0,00 h 0,000 mm 0,0 UV-I 0 W/m 8,6 C 10,3 C 0,5 km/h (0 Bft) 96,80 %
09.06.2017 03:00 9,7 C 21,7 C 91 % 1016,0 hPa 0,0 l/m 1,4 km/h (1 Bft) NO 0,00 h 0,000 mm 0,0 UV-I 0 W/m 8,3 C 9,7 C 2,2 km/h (1 Bft) 96,83 %
09.06.2017 04:00 9,0 C 21,5 C 92 % 1015,6 hPa 0,0 l/m 2,3 km/h (1 Bft) O-SO 0,00 h 0,000 mm 0,0 UV-I 5 W/m 7,8 C 9,0 C 3,4 km/h (1 Bft) 96,33 %
09.06.2017 05:00 8,7 C 21,1 C 93 % 1016,0 hPa 0,0 l/m 0,1 km/h (0 Bft) O-SO 0,63 h 0,000 mm 0,0 UV-I 37 W/m 7,6 C 8,7 C 0,4 km/h (0 Bft) 98,77 %
09.06.2017 06:00 9,9 C 20,9 C 91 % 1015,8 hPa 0,0 l/m 2,7 km/h (1 Bft) O-SO 0,83 h 0,025 mm 0,0 UV-I 134 W/m 8,5 C 9,9 C 4,4 km/h (1 Bft) 95,04 %
09.06.2017 07:00 12,4 C 20,6 C 83 % 1015,3 hPa 0,0 l/m 5,8 km/h (2 Bft) NO 1,00 h 0,077 mm 0,7 UV-I 315 W/m 9,6 C 12,2 C 8,8 km/h (2 Bft) 97,92 %
09.06.2017 08:00 14,8 C 20,9 C 75 % 1014,8 hPa 0,0 l/m 7,7 km/h (2 Bft) O-NO 1,00 h 0,177 mm 1,5 UV-I 488 W/m 10,5 C 14,0 C 12,5 km/h (3 Bft) 95,44 %
09.06.2017 09:00 17,3 C 20,6 C 69 % 1014,3 hPa 0,0 l/m 8,1 km/h (2 Bft) O-NO 1,00 h 0,280 mm 2,7 UV-I 647 W/m 11,5 C 16,4 C 13,9 km/h (3 Bft) 96,18 %
09.06.2017 10:00 19,5 C 20,8 C 62 % 1013,6 hPa 0,0 l/m 10,7 km/h (2 Bft) NO 1,00 h 0,381 mm 4,1 UV-I 779 W/m 12,1 C 18,0 C 16,7 km/h (3 Bft) 96,68 %
09.06.2017 11:00 22,3 C 21,9 C 52 % 1013,0 hPa 0,0 l/m 11,0 km/h (2 Bft) O-NO 1,00 h 0,508 mm 5,4 UV-I 867 W/m 12,0 C 21,0 C 17,2 km/h (3 Bft) 97,87 %
09.06.2017 12:00 24,2 C 21,3 C 44 % 1012,5 hPa 0,0 l/m 13,2 km/h (3 Bft) NO 1,00 h 0,609 mm 6,3 UV-I 919 W/m 11,2 C 22,7 C 20,0 km/h (4 Bft) 95,86 %
09.06.2017 13:00 25,7 C 21,7 C 45 % 1011,8 hPa 0,0 l/m 12,6 km/h (3 Bft) NO 1,00 h 0,686 mm 6,3 UV-I 910 W/m 12,7 C 24,5 C 19,4 km/h (3 Bft) 96,98 %
09.06.2017 14:00 27,0 C 22,2 C 43 % 1011,3 hPa 0,0 l/m 7,9 km/h (2 Bft) NO 1,00 h 0,686 mm 5,6 UV-I 868 W/m 13,3 C 26,7 C 14,0 km/h (3 Bft) 97,69 %
09.06.2017 15:00 27,8 C 22,4 C 41 % 1011,3 hPa 0,0 l/m 4,1 km/h (1 Bft) O 1,00 h 0,635 mm 4,3 UV-I 765 W/m 13,2 C 27,7 C 7,8 km/h (2 Bft) 98,23 %
09.06.2017 16:00 27,9 C 22,8 C 39 % 1011,4 hPa 0,0 l/m 4,2 km/h (1 Bft) W 1,00 h 0,533 mm 2,5 UV-I 499 W/m 12,7 C 27,9 C 8,1 km/h (2 Bft) 96,71 %
09.06.2017 17:00 27,4 C 22,8 C 38 % 1011,6 hPa 0,0 l/m 7,0 km/h (2 Bft) W-SW 0,87 h 0,381 mm 1,5 UV-I 393 W/m 11,9 C 27,1 C 13,8 km/h (3 Bft) 98,27 %
09.06.2017 18:00 26,6 C 22,8 C 40 % 1012,0 hPa 0,0 l/m 4,8 km/h (1 Bft) W-SW 0,77 h 0,331 mm 0,8 UV-I 291 W/m 11,9 C 26,5 C 10,8 km/h (2 Bft) 98,81 %
09.06.2017 19:00 25,0 C 22,9 C 45 % 1012,4 hPa 0,0 l/m 9,8 km/h (2 Bft) W 0,30 h 0,228 mm 0,0 UV-I 100 W/m 12,2 C 24,1 C 16,3 km/h (3 Bft) 96,19 %
09.06.2017 20:00 23,2 C 22,9 C 54 % 1012,7 hPa 0,0 l/m 13,1 km/h (3 Bft) W-SW 0,33 h 0,153 mm 0,0 UV-I 33 W/m 13,3 C 21,5 C 20,3 km/h (4 Bft) 97,63 %
09.06.2017 21:00 21,9 C 22,8 C 61 % 1013,5 hPa 0,0 l/m 11,0 km/h (2 Bft) W-SW 0,00 h 0,127 mm 0,0 UV-I 5 W/m 13,9 C 20,4 C 17,0 km/h (3 Bft) 97,31 %
09.06.2017 22:00 21,1 C 22,8 C 61 % 1014,0 hPa 0,0 l/m 10,7 km/h (2 Bft) W-SW 0,00 h 0,076 mm 0,0 UV-I 0 W/m 13,4 C 19,7 C 17,4 km/h (3 Bft) 98,45 %
09.06.2017 23:00 20,2 C 22,8 C 59 % 1014,6 hPa 0,0 l/m 9,7 km/h (2 Bft) W-SW 0,00 h 0,076 mm 0,0 UV-I 0 W/m 11,8 C 19,0 C 15,2 km/h (3 Bft) 95,38 %
10.06.2017 00:00 19,6 C 22,4 C 61 % 1015,1 hPa 0,0 l/m 9,9 km/h (2 Bft) W-SW 0,00 h 0,000 mm 0,0 UV-I 0 W/m 11,8 C 18,3 C 15,8 km/h (3 Bft) 97,35 %
10.06.2017 01:00 18,7 C 22,4 C 65 % 1015,6 hPa 0,0 l/m 4,8 km/h (1 Bft) W-SW 0,00 h 0,051 mm 0,0 UV-I 0 W/m 11,9 C 18,6 C 9,9 km/h (2 Bft) 96,80 %
10.06.2017 02:00 15,9 C 23,2 C 86 % 1016,4 hPa 2,0 l/m 3,7 km/h (1 Bft) W 0,00 h 0,025 mm 0,0 UV-I 0 W/m 13,5 C 15,8 C 7,0 km/h (2 Bft) 98,26 %
10.06.2017 03:00 15,1 C 23,3 C 93 % 1017,0 hPa 0,8 l/m 3,1 km/h (1 Bft) W-SW 0,00 h 0,000 mm 0,0 UV-I 0 W/m 14,0 C 15,1 C 5,7 km/h (1 Bft) 95,09 %
10.06.2017 04:00 14,8 C 23,3 C 94 % 1017,2 hPa 0,6 l/m 3,5 km/h (1 Bft) W 0,00 h 0,000 mm 0,0 UV-I 0 W/m 13,8 C 14,7 C 7,0 km/h (2 Bft) 97,86 %
10.06.2017 05:00 14,6 C 23,3 C 95 % 1017,0 hPa 0,2 l/m 2,1 km/h (1 Bft) S 0,00 h 0,000 mm 0,0 UV-I 12 W/m 13,8 C 14,6 C 4,2 km/h (1 Bft) 96,75 %
10.06.2017 06:00 14,8 C 23,3 C 95 % 1017,7 hPa 0,4 l/m 5,0 km/h (1 Bft) W-SW 0,23 h 0,000 mm 0,0 UV-I 74 W/m 14,0 C 14,4 C 8,7 km/h (2 Bft) 98,32 %
10.06.2017 07:00 15,4 C 22,3 C 92 % 1018,4 hPa 0,0 l/m 5,8 km/h (1 Bft) W 0,77 h 0,051 mm 0,7 UV-I 294 W/m 14,1 C 15,2 C 11,3 km/h (2 Bft) 95,64 %
10.06.2017 08:00 16,4 C 22,7 C 84 % 1019,0 hPa 0,0 l/m 6,0 km/h (2 Bft) W 0,80 h 0,152 mm 1,4 UV-I 460 W/m 13,6 C 16,2 C 12,1 km/h (2 Bft) 97,93 %
10.06.2017 09:00 17,4 C 22,7 C 79 % 1019,4 hPa 0,0 l/m 7,1 km/h (2 Bft) W-SW 0,77 h 0,254 mm 2,5 UV-I 614 W/m 13,7 C 16,8 C 14,7 km/h (3 Bft) 96,32 %
10.06.2017 10:00 18,6 C 22,7 C 72 % 1019,4 hPa 0,0 l/m 6,2 km/h (2 Bft) W-SW 0,90 h 0,331 mm 3,9 UV-I 757 W/m 13,5 C 18,3 C 13,3 km/h (3 Bft) 96,20 %
10.06.2017 11:00 19,6 C 23,0 C 67 % 1019,5 hPa 0,0 l/m 5,7 km/h (1 Bft) W 0,53 h 0,431 mm 4,5 UV-I 651 W/m 13,4 C 19,3 C 12,3 km/h (3 Bft) 95,42 %
10.06.2017 12:00 20,7 C 23,4 C 60 % 1019,4 hPa 0,0 l/m 7,7 km/h (2 Bft) W 0,87 h 0,432 mm 6,0 UV-I 857 W/m 12,8 C 20,2 C 15,4 km/h (3 Bft) 97,89 %
10.06.2017 13:00 21,7 C 23,7 C 54 % 1019,4 hPa 0,0 l/m 9,2 km/h (2 Bft) W 1,00 h 0,534 mm 6,5 UV-I 973 W/m 11,9 C 20,8 C 17,9 km/h (3 Bft) 96,85 %
10.06.2017 14:00 22,1 C 23,6 C 50 % 1019,4 hPa 0,0 l/m 7,0 km/h (2 Bft) W-NW 1,00 h 0,609 mm 5,8 UV-I 913 W/m 11,3 C 21,7 C 15,4 km/h (3 Bft) 96,37 %
10.06.2017 15:00 22,5 C 25,0 C 49 % 1019,2 hPa 0,0 l/m 6,4 km/h (2 Bft) W-NW 1,00 h 0,559 mm 4,6 UV-I 797 W/m 11,1 C 22,2 C 13,8 km/h (3 Bft) 97,28 %
10.06.2017 16:00 22,7 C 25,0 C 47 % 1018,8 hPa 0,0 l/m 5,5 km/h (1 Bft) W-SW 1,00 h 0,508 mm 3,2 UV-I 651 W/m 10,9 C 22,4 C 11,9 km/h (2 Bft) 98,38 %
10.06.2017 17:00 22,2 C 25,0 C 49 % 1018,4 hPa 0,0 l/m 4,1 km/h (1 Bft) N-NW 1,00 h 0,432 mm 1,8 UV-I 471 W/m 10,9 C 22,2 C 10,1 km/h (2 Bft) 96,75 %
10.06.2017 18:00 21,5 C 25,2 C 50 % 1018,5 hPa 0,0 l/m 3,5 km/h (1 Bft) N-NW 0,77 h 0,305 mm 0,8 UV-I 264 W/m 10,7 C 21,5 C 8,4 km/h (2 Bft) 94,48 %
10.06.2017 19:00 20,4 C 25,6 C 53 % 1018,7 hPa 0,0 l/m 2,5 km/h (1 Bft) W 0,00 h 0,177 mm 0,0 UV-I 99 W/m 10,4 C 20,4 C 6,4 km/h (2 Bft) 96,15 %
10.06.2017 20:00 20,0 C 25,0 C 53 % 1018,8 hPa 0,0 l/m 3,4 km/h (1 Bft) W-SW 0,33 h 0,077 mm 0,0 UV-I 32 W/m 9,9 C 19,9 C 6,3 km/h (2 Bft) 97,91 %
10.06.2017 21:00 18,9 C 25,0 C 56 % 1019,3 hPa 0,0 l/m 1,4 km/h (1 Bft) W 0,00 h 0,050 mm 0,0 UV-I 7 W/m 9,8 C 18,9 C 3,5 km/h (1 Bft) 97,15 %
10.06.2017 22:00 17,1 C 25,0 C 67 % 1019,8 hPa 0,0 l/m 1,4 km/h (1 Bft) W 0,00 h 0,026 mm 0,0 UV-I 0 W/m 10,9 C 17,1 C 3,4 km/h (1 Bft) 96,67 %
10.06.2017 23:00 16,1 C 24,9 C 70 % 1020,3 hPa 0,0 l/m 1,5 km/h (1 Bft) SW 0,00 h 0,025 mm 0,0 UV-I 0 W/m 10,6 C 16,1 C 3,5 km/h (1 Bft) 96,31 %
11.06.2017 00:00 15,2 C 24,4 C 76 % 1020,5 hPa 0,0 l/m 1,9 km/h (1 Bft) S-SW 0,00 h 0,000 mm 0,0 UV-I 0 W/m 11,0 C 15,2 C 4,3 km/h (1 Bft) 97,93 %
11.06.2017 01:00 14,5 C 24,4 C 79 % 1020,4 hPa 0,0 l/m 3,2 km/h (1 Bft) S 0,00 h 0,000 mm 0,0 UV-I 0 W/m 10,9 C 14,5 C 5,5 km/h (1 Bft) 97,03 %
11.06.2017 02:00 13,7 C 24,4 C 82 % 1020,5 hPa 0,0 l/m 5,4 km/h (1 Bft) S-SW 0,00 h 0,025 mm 0,0 UV-I 0 W/m 10,6 C 13,6 C 8,2 km/h (2 Bft) 96,09 %
11.06.2017 03:00 12,9 C 24,4 C 84 % 1020,4 hPa 0,0 l/m 4,5 km/h (1 Bft) S 0,00 h 0,026 mm 0,0 UV-I 0 W/m 10,3 C 12,9 C 7,5 km/h (2 Bft) 97,00 %
11.06.2017 04:00 12,5 C 24,2 C 85 % 1020,4 hPa 0,0 l/m 5,1 km/h (1 Bft) S-SW 0,00 h 0,025 mm 0,0 UV-I 5 W/m 10,0 C 12,5 C 7,9 km/h (2 Bft) 97,50 %
11.06.2017 05:00 12,2 C 23,9 C 86 % 1020,6 hPa 0,0 l/m 4,4 km/h (1 Bft) S-SW 0,70 h 0,026 mm 0,0 UV-I 34 W/m 10,0 C 12,2 C 6,7 km/h (2 Bft) 95,52 %
11.06.2017 06:00 13,3 C 23,9 C 85 % 1021,0 hPa 0,0 l/m 1,5 km/h (1 Bft) S-SW 0,83 h 0,025 mm 0,0 UV-I 131 W/m 10,7 C 13,3 C 2,9 km/h (1 Bft) 97,68 %
11.06.2017 07:00 15,6 C 23,3 C 78 % 1021,0 hPa 0,0 l/m 3,0 km/h (1 Bft) S-SW 1,00 h 0,076 mm 0,8 UV-I 309 W/m 11,7 C 15,6 C 5,4 km/h (1 Bft) 97,64 %
11.06.2017 08:00 17,5 C 23,7 C 69 % 1021,0 hPa 0,0 l/m 2,4 km/h (1 Bft) SW 1,00 h 0,178 mm 1,8 UV-I 479 W/m 11,7 C 17,5 C 4,9 km/h (1 Bft) 97,41 %
11.06.2017 09:00 19,2 C 22,8 C 62 % 1020,9 hPa 0,0 l/m 2,2 km/h (1 Bft) W-SW 1,00 h 0,279 mm 3,2 UV-I 636 W/m 11,7 C 19,2 C 4,6 km/h (1 Bft) 97,08 %
11.06.2017 10:00 21,2 C 23,0 C 59 % 1020,7 hPa 0,0 l/m 2,8 km/h (1 Bft) O-NO 1,00 h 0,381 mm 4,7 UV-I 767 W/m 12,9 C 21,2 C 5,5 km/h (1 Bft) 98,53 %
11.06.2017 11:00 22,5 C 23,3 C 50 % 1020,4 hPa 0,0 l/m 3,1 km/h (1 Bft) N-NO 1,00 h 0,458 mm 6,2 UV-I 866 W/m 11,5 C 22,5 C 6,9 km/h (2 Bft) 97,12 %
11.06.2017 12:00 23,4 C 23,4 C 46 % 1019,7 hPa 0,0 l/m 5,2 km/h (1 Bft) O-NO 1,00 h 0,558 mm 7,1 UV-I 918 W/m 11,2 C 23,4 C 9,9 km/h (2 Bft) 97,40 %
11.06.2017 13:00 24,0 C 23,9 C 43 % 1019,1 hPa 0,0 l/m 5,0 km/h (1 Bft) N-NO 1,00 h 0,610 mm 7,1 UV-I 921 W/m 10,6 C 23,9 C 9,4 km/h (2 Bft) 97,17 %
11.06.2017 14:00 24,7 C 24,2 C 40 % 1018,4 hPa 0,0 l/m 2,8 km/h (1 Bft) NW 1,00 h 0,610 mm 6,3 UV-I 864 W/m 10,2 C 24,7 C 6,7 km/h (2 Bft) 98,72 %
11.06.2017 15:00 25,5 C 24,4 C 39 % 1017,6 hPa 0,0 l/m 5,5 km/h (1 Bft) NO 1,00 h 0,558 mm 5,1 UV-I 780 W/m 10,6 C 25,3 C 9,9 km/h (2 Bft) 98,33 %
11.06.2017 16:00 25,8 C 24,9 C 37 % 1016,9 hPa 0,0 l/m 5,3 km/h (1 Bft) O-NO 1,00 h 0,534 mm 3,4 UV-I 648 W/m 9,9 C 25,6 C 9,4 km/h (2 Bft) 96,70 %
11.06.2017 17:00 25,8 C 25,0 C 36 % 1016,0 hPa 0,0 l/m 6,6 km/h (2 Bft) O-NO 1,00 h 0,457 mm 2,0 UV-I 485 W/m 9,7 C 25,6 C 11,2 km/h (2 Bft) 99,32 %
11.06.2017 18:00 25,6 C 25,0 C 35 % 1015,4 hPa 0,0 l/m 6,9 km/h (2 Bft) O-NO 1,00 h 0,381 mm 0,9 UV-I 312 W/m 9,0 C 25,4 C 10,7 km/h (2 Bft) 96,99 %
11.06.2017 19:00 25,0 C 25,0 C 38 % 1015,0 hPa 0,0 l/m 5,1 km/h (1 Bft) O-NO 1,00 h 0,279 mm 0,5 UV-I 154 W/m 9,6 C 25,0 C 7,3 km/h (2 Bft) 98,21 %
11.06.2017 20:00 23,0 C 24,9 C 43 % 1014,6 hPa 0,0 l/m 3,6 km/h (1 Bft) O-NO 0,43 h 0,153 mm 0,0 UV-I 37 W/m 9,7 C 23,0 C 5,5 km/h (1 Bft) 94,71 %
11.06.2017 21:00 19,2 C 25,5 C 59 % 1014,5 hPa 0,0 l/m 1,3 km/h (1 Bft) O-NO 0,00 h 0,076 mm 0,0 UV-I 6 W/m 11,1 C 19,2 C 2,5 km/h (1 Bft) 97,93 %
11.06.2017 22:00 17,5 C 25,3 C 67 % 1014,5 hPa 0,0 l/m 1,0 km/h (0 Bft) O-NO 0,00 h 0,025 mm 0,0 UV-I 0 W/m 11,2 C 17,5 C 2,2 km/h (1 Bft) 97,07 %
11.06.2017 23:00 16,4 C 25,0 C 69 % 1014,2 hPa 0,0 l/m 1,6 km/h (1 Bft) O-NO 0,00 h 0,026 mm 0,0 UV-I 0 W/m 10,6 C 16,4 C 2,9 km/h (1 Bft) 97,27 %
Min-Datum _ 08.06.17 08.06.17 11.06.17 06.06.17 - 05.06.17 - - - - - 08.06.17 06.06.17 05.06.17 07.06.17
_ Min-Zeit 05:58 07:18 16:46 13:06 - 01:01 - - - - - 11:26 20:50 01:01 00:02
Minimum _ 7,1 C 18,9 C 33 % 1002,8 hPa - 0,0 km/h (0 Bft) - - - - - 5,3 C 3,7 C 0,0 km/h (0 Bft) 13,33 %
Max-Datum _ 09.06.17 11.06.17 06.06.17 08.06.17 05.06.17 06.06.17 - 08.06.17 09.06.17 11.06.17 07.06.17 06.06.17 09.06.17 06.06.17 05.06.17
_ Max-Zeit 16:52 21:24 06:18 05:48 23:14 20:14 - 17:46 13:00 12:50 11:46 13:06 16:52 20:08 00:04
Maximum _ 28,2 C 26,1 C 98 % 1022,6 hPa 4,8 l/m 32,5 km/h
SW (5 Bft)
- 0,10 h 0,686 mm 7,3 UV-I 1144 W/m 18,3 C 28,2 C 48,3 km/h
SW (6 Bft)
100,00 %
Durchschnitt _ 16,9 C 22,7 C 72 % 1015,1 hPa #17,6 l/m 6,2 km/h (2 Bft) SW #71:44 h #31,293 mm 2,9 UV-I 373 W/m 11,2 C 16,2 C 10,6 km/h (2 Bft) 96,80 %